createdAt,value
2022-08-30T00:00:05.156Z,70.28
2022-08-30T00:00:56.846Z,69.30
2022-08-30T00:01:32.142Z,70.60
2022-08-30T00:02:04.770Z,69.97
2022-08-30T00:02:37.406Z,70.45
2022-08-30T00:03:15.156Z,69.30
2022-08-30T00:03:48.190Z,69.88
2022-08-30T00:04:20.875Z,69.82
2022-08-30T00:04:55.248Z,70.53
2022-08-30T00:05:28.299Z,71.05
2022-08-30T00:06:00.918Z,70.18
2022-08-30T00:06:34.530Z,69.70
2022-08-30T00:07:07.145Z,69.90
2022-08-30T00:07:39.710Z,69.88
2022-08-30T00:08:13.677Z,69.93
2022-08-30T00:08:49.033Z,69.63
2022-08-30T00:09:21.540Z,70.22
2022-08-30T00:09:55.702Z,68.85
2022-08-30T00:10:29.582Z,69.28
2022-08-30T00:11:06.645Z,68.72
2022-08-30T00:11:39.177Z,69.75
2022-08-30T00:12:11.667Z,70.88
2022-08-30T00:12:45.211Z,69.95
2022-08-30T00:13:19.637Z,70.88
2022-08-30T00:13:54.346Z,69.90
2022-08-30T00:14:28.021Z,68.75
2022-08-30T00:15:00.574Z,69.90
2022-08-30T00:15:34.025Z,69.88
2022-08-30T00:16:08.466Z,70.03
2022-08-30T00:16:41.066Z,69.00
2022-08-30T00:17:13.848Z,69.63
2022-08-30T00:17:47.616Z,69.68
2022-08-30T00:18:22.308Z,69.63
2022-08-30T00:18:57.400Z,69.57
2022-08-30T00:19:31.467Z,70.45
2022-08-30T00:20:06.556Z,69.07
2022-08-30T00:20:39.472Z,70.63
2022-08-30T00:21:13.788Z,70.00
2022-08-30T00:21:46.348Z,69.30
2022-08-30T00:22:18.956Z,69.75
2022-08-30T00:22:52.483Z,70.18
2022-08-30T00:23:25.825Z,69.57
2022-08-30T00:23:58.380Z,69.97
2022-08-30T00:24:31.894Z,69.72
2022-08-30T00:25:05.080Z,69.53
2022-08-30T00:25:37.841Z,69.32
2022-08-30T00:26:11.324Z,69.32
2022-08-30T00:26:43.981Z,70.07
2022-08-30T00:27:16.546Z,70.25
2022-08-30T00:27:50.186Z,70.63
2022-08-30T00:28:22.700Z,70.05
2022-08-30T00:28:55.394Z,71.05
2022-08-30T00:29:28.882Z,70.10
2022-08-30T00:30:01.718Z,69.60
2022-08-30T00:30:34.460Z,69.68
2022-08-30T00:31:08.811Z,69.88
2022-08-30T00:31:41.424Z,70.03
2022-08-30T00:32:14.079Z,69.43
2022-08-30T00:32:47.723Z,69.37
2022-08-30T00:33:22.646Z,70.00
2022-08-30T00:33:55.275Z,70.07
2022-08-30T00:34:28.871Z,68.97
2022-08-30T00:35:01.917Z,69.93
2022-08-30T00:35:34.825Z,70.75
2022-08-30T00:36:08.622Z,70.60
2022-08-30T00:36:41.117Z,70.05
2022-08-30T00:37:13.796Z,69.32
2022-08-30T00:37:47.437Z,69.80
2022-08-30T00:38:20.028Z,69.43
2022-08-30T00:38:52.827Z,69.68
2022-08-30T00:39:26.427Z,70.20
2022-08-30T00:39:59.013Z,69.18
2022-08-30T00:40:31.907Z,70.00
2022-08-30T00:41:05.445Z,70.30
2022-08-30T00:41:38.087Z,69.70
2022-08-30T00:42:13.050Z,69.65
2022-08-30T00:42:50.676Z,69.60
2022-08-30T00:43:28.056Z,70.88
2022-08-30T00:44:00.698Z,70.55
2022-08-30T00:44:34.588Z,69.80
2022-08-30T00:45:13.140Z,70.13
2022-08-30T00:45:45.742Z,69.80
2022-08-30T00:46:19.356Z,70.38
2022-08-30T00:46:51.920Z,70.05
2022-08-30T00:47:24.558Z,69.63
2022-08-30T00:47:59.125Z,70.13
2022-08-30T00:48:33.484Z,70.32
2022-08-30T00:49:08.819Z,71.00
2022-08-30T00:49:46.269Z,69.88
2022-08-30T00:50:23.242Z,69.50
2022-08-30T00:50:59.795Z,69.82
2022-08-30T00:51:33.477Z,70.22
2022-08-30T00:52:07.425Z,70.57
2022-08-30T00:52:43.019Z,70.90
2022-08-30T00:53:20.912Z,70.15
2022-08-30T00:53:56.344Z,71.63
2022-08-30T00:54:30.159Z,70.97
2022-08-30T00:55:05.544Z,70.10
2022-08-30T00:55:38.978Z,69.68
2022-08-30T00:56:15.318Z,70.45
2022-08-30T00:56:50.751Z,70.55
2022-08-30T00:57:23.251Z,71.28
2022-08-30T00:58:00.791Z,70.45
2022-08-30T00:58:38.566Z,69.82
2022-08-30T00:59:11.461Z,71.40
2022-08-30T00:59:47.922Z,71.60
2022-08-30T01:00:20.835Z,70.78
2022-08-30T01:00:57.013Z,70.75
2022-08-30T01:01:32.089Z,72.00
2022-08-30T01:02:07.121Z,70.75
2022-08-30T01:02:39.927Z,71.15
2022-08-30T01:03:13.726Z,70.25
2022-08-30T01:03:48.797Z,70.93
2022-08-30T01:04:24.348Z,70.90
2022-08-30T01:04:57.828Z,70.47
2022-08-30T01:05:30.789Z,70.15
2022-08-30T01:06:05.907Z,70.80
2022-08-30T01:06:39.974Z,70.80
2022-08-30T01:07:12.692Z,71.20
2022-08-30T01:07:46.177Z,70.65
2022-08-30T01:08:20.398Z,71.18
2022-08-30T01:08:54.099Z,70.28
2022-08-30T01:09:27.702Z,70.78
2022-08-30T01:10:00.443Z,72.28
2022-08-30T01:10:35.809Z,71.03
2022-08-30T01:11:08.958Z,70.55
2022-08-30T01:11:42.905Z,70.82
2022-08-30T01:12:17.088Z,71.63
2022-08-30T01:12:50.080Z,70.65
2022-08-30T01:13:23.779Z,72.82
2022-08-30T01:13:58.412Z,70.53
2022-08-30T01:14:33.348Z,71.22
2022-08-30T01:15:09.533Z,71.22
2022-08-30T01:15:43.881Z,70.28
2022-08-30T01:16:16.797Z,70.40
2022-08-30T01:16:50.413Z,72.05
2022-08-30T01:17:24.183Z,70.68
2022-08-30T01:17:57.711Z,71.10
2022-08-30T01:18:31.914Z,72.15
2022-08-30T01:19:10.751Z,70.63
2022-08-30T01:19:50.566Z,73.45
2022-08-30T01:20:27.891Z,71.20
2022-08-30T01:21:10.256Z,71.60
2022-08-30T01:21:49.008Z,70.43
2022-08-30T01:22:27.725Z,71.07
2022-08-30T01:23:08.829Z,72.88
2022-08-30T01:23:43.872Z,72.15
2022-08-30T01:24:18.077Z,69.95
2022-08-30T01:24:52.845Z,71.22
2022-08-30T01:25:28.951Z,70.65
2022-08-30T01:26:03.368Z,71.38
2022-08-30T01:26:37.565Z,71.53
2022-08-30T01:27:10.122Z,71.65
2022-08-30T01:27:48.733Z,71.78
2022-08-30T01:28:23.835Z,69.70
2022-08-30T01:29:00.673Z,72.05
2022-08-30T01:29:33.456Z,71.50
2022-08-30T01:30:08.757Z,71.93
2022-08-30T01:30:43.101Z,71.47
2022-08-30T01:31:15.945Z,71.68
2022-08-30T01:31:50.148Z,71.40
2022-08-30T01:32:28.965Z,72.07
2022-08-30T01:33:03.859Z,71.80
2022-08-30T01:33:38.669Z,72.35
2022-08-30T01:34:12.469Z,70.32
2022-08-30T01:34:45.374Z,71.70
2022-08-30T01:35:20.441Z,71.93
2022-08-30T01:35:56.567Z,72.13
2022-08-30T01:36:29.541Z,71.20
2022-08-30T01:37:03.405Z,71.15
2022-08-30T01:37:36.653Z,71.35
2022-08-30T01:38:11.607Z,72.05
2022-08-30T01:38:49.119Z,71.55
2022-08-30T01:39:21.707Z,71.53
2022-08-30T01:39:54.843Z,71.85
2022-08-30T01:40:28.416Z,71.65
2022-08-30T01:41:09.831Z,72.55
2022-08-30T01:41:43.507Z,70.53
2022-08-30T01:42:18.375Z,72.47
2022-08-30T01:42:50.915Z,72.40
2022-08-30T01:43:24.520Z,72.22
2022-08-30T01:43:59.543Z,71.75
2022-08-30T01:44:32.084Z,71.35
2022-08-30T01:45:07.167Z,72.07
2022-08-30T01:45:39.892Z,71.13
2022-08-30T01:46:13.436Z,71.20
2022-08-30T01:46:48.956Z,71.68
2022-08-30T01:47:21.533Z,72.32
2022-08-30T01:47:54.071Z,71.70
2022-08-30T01:48:31.200Z,72.38
2022-08-30T01:49:06.936Z,71.40
2022-08-30T01:49:40.543Z,72.97
2022-08-30T01:50:14.155Z,73.30
2022-08-30T01:50:48.245Z,72.10
2022-08-30T01:51:21.882Z,71.88
2022-08-30T01:52:00.738Z,72.43
2022-08-30T01:52:34.169Z,71.05
2022-08-30T01:53:06.845Z,72.93
2022-08-30T01:53:44.258Z,72.47
2022-08-30T01:54:16.921Z,72.20
2022-08-30T01:54:50.212Z,72.30
2022-08-30T01:55:24.260Z,71.72
2022-08-30T01:55:56.867Z,71.28
2022-08-30T01:56:30.106Z,72.70
2022-08-30T01:57:04.963Z,72.57
2022-08-30T01:57:37.554Z,73.05
2022-08-30T01:58:10.859Z,71.90
2022-08-30T01:58:44.779Z,72.85
2022-08-30T01:59:17.916Z,72.78
2022-08-30T01:59:50.870Z,72.55
2022-08-30T02:00:24.607Z,72.50
2022-08-30T02:00:57.442Z,72.30
2022-08-30T02:01:33.351Z,72.65
2022-08-30T02:02:07.965Z,72.63
2022-08-30T02:02:40.777Z,72.07
2022-08-30T02:03:13.740Z,72.38
2022-08-30T02:03:48.488Z,73.32
2022-08-30T02:04:21.297Z,72.13
2022-08-30T02:04:54.602Z,72.57
2022-08-30T02:05:28.189Z,72.22
2022-08-30T02:06:03.734Z,71.78
2022-08-30T02:06:38.330Z,73.35
2022-08-30T02:07:13.075Z,72.40
2022-08-30T02:07:49.499Z,72.53
2022-08-30T02:08:22.035Z,73.55
2022-08-30T02:08:56.896Z,73.22
2022-08-30T02:09:29.914Z,74.00
2022-08-30T02:10:02.582Z,73.45
2022-08-30T02:10:36.116Z,73.70
2022-08-30T02:11:09.501Z,73.50
2022-08-30T02:11:42.540Z,72.70
2022-08-30T02:12:15.470Z,73.20
2022-08-30T02:12:49.049Z,73.43
2022-08-30T02:13:22.042Z,73.00
2022-08-30T02:13:54.626Z,72.50
2022-08-30T02:14:28.376Z,73.78
2022-08-30T02:15:00.943Z,72.45
2022-08-30T02:15:41.688Z,72.90
2022-08-30T02:16:18.347Z,73.35
2022-08-30T02:16:51.074Z,72.32
2022-08-30T02:17:25.151Z,72.45
2022-08-30T02:17:57.616Z,73.30
2022-08-30T02:18:34.735Z,72.70
2022-08-30T02:19:08.299Z,72.40
2022-08-30T02:19:41.554Z,72.60
2022-08-30T02:20:14.046Z,73.45
2022-08-30T02:20:48.210Z,72.90
2022-08-30T02:21:20.960Z,73.10
2022-08-30T02:21:53.514Z,72.68
2022-08-30T02:22:27.096Z,72.68
2022-08-30T02:23:01.392Z,72.68
2022-08-30T02:23:35.200Z,72.88
2022-08-30T02:24:09.144Z,73.15
2022-08-30T02:24:41.725Z,73.63
2022-08-30T02:25:18.658Z,72.35
2022-08-30T02:25:54.306Z,72.13
2022-08-30T02:26:27.114Z,74.22
2022-08-30T02:27:01.128Z,73.03
2022-08-30T02:27:34.050Z,72.32
2022-08-30T02:28:07.085Z,73.28
2022-08-30T02:28:49.997Z,72.30
2022-08-30T02:29:24.215Z,72.57
2022-08-30T02:29:56.840Z,73.13
2022-08-30T02:30:30.410Z,73.47
2022-08-30T02:31:03.399Z,72.97
2022-08-30T02:31:36.214Z,72.43
2022-08-30T02:32:09.883Z,72.55
2022-08-30T02:32:42.463Z,72.47
2022-08-30T02:33:15.409Z,72.55
2022-08-30T02:33:50.273Z,72.68
2022-08-30T02:34:23.304Z,72.72
2022-08-30T02:34:56.042Z,73.15
2022-08-30T02:35:29.532Z,71.75
2022-08-30T02:36:02.466Z,73.18
2022-08-30T02:36:34.969Z,71.25
2022-08-30T02:37:11.268Z,73.00
2022-08-30T02:37:43.948Z,72.07
2022-08-30T02:38:19.876Z,72.25
2022-08-30T02:38:53.773Z,72.60
2022-08-30T02:39:27.751Z,72.40
2022-08-30T02:40:00.329Z,72.32
2022-08-30T02:40:33.940Z,72.70
2022-08-30T02:41:08.122Z,72.50
2022-08-30T02:41:41.529Z,71.75
2022-08-30T02:42:15.077Z,72.13
2022-08-30T02:42:47.770Z,71.93
2022-08-30T02:43:20.686Z,72.47
2022-08-30T02:43:58.409Z,72.20
2022-08-30T02:44:31.036Z,72.03
2022-08-30T02:45:04.106Z,72.22
2022-08-30T02:45:37.732Z,72.53
2022-08-30T02:46:10.455Z,70.88
2022-08-30T02:46:43.095Z,73.03
2022-08-30T02:47:16.785Z,72.07
2022-08-30T02:47:49.370Z,72.45
2022-08-30T02:48:23.622Z,72.20
2022-08-30T02:48:58.668Z,72.63
2022-08-30T02:49:34.076Z,72.38
2022-08-30T02:50:10.100Z,71.72
2022-08-30T02:50:43.615Z,72.10
2022-08-30T02:51:16.412Z,72.30
2022-08-30T02:51:50.036Z,72.38
2022-08-30T02:52:27.814Z,72.70
2022-08-30T02:53:01.537Z,71.47
2022-08-30T02:53:34.098Z,72.03
2022-08-30T02:54:07.042Z,71.85
2022-08-30T02:54:41.874Z,72.32
2022-08-30T02:55:14.414Z,71.93
2022-08-30T02:55:47.384Z,72.20
2022-08-30T02:56:19.926Z,71.93
2022-08-30T02:56:53.949Z,73.22
2022-08-30T02:57:26.520Z,71.63
2022-08-30T02:57:58.988Z,72.22
2022-08-30T02:58:32.647Z,71.93
2022-08-30T02:59:05.140Z,72.22
2022-08-30T02:59:44.157Z,71.82
2022-08-30T03:00:20.558Z,71.45
2022-08-30T03:00:53.405Z,72.22
2022-08-30T03:01:29.339Z,71.50
2022-08-30T03:02:02.150Z,71.85
2022-08-30T03:02:34.922Z,71.30
2022-08-30T03:03:08.786Z,72.35
2022-08-30T03:03:42.935Z,72.25
2022-08-30T03:04:15.474Z,72.50
2022-08-30T03:04:49.307Z,71.82
2022-08-30T03:05:21.866Z,71.68
2022-08-30T03:05:54.376Z,71.97
2022-08-30T03:06:27.887Z,73.05
2022-08-30T03:07:00.401Z,71.82
2022-08-30T03:07:32.874Z,72.03
2022-08-30T03:08:06.344Z,71.25
2022-08-30T03:08:38.906Z,71.75
2022-08-30T03:09:11.434Z,73.07
2022-08-30T03:09:46.588Z,72.05
2022-08-30T03:10:19.433Z,71.57
2022-08-30T03:10:52.104Z,72.07
2022-08-30T03:11:26.750Z,72.00
2022-08-30T03:11:59.221Z,70.95
2022-08-30T03:12:32.594Z,72.18
2022-08-30T03:13:08.953Z,70.63
2022-08-30T03:13:42.098Z,71.50
2022-08-30T03:14:14.606Z,71.65
2022-08-30T03:14:48.368Z,71.70
2022-08-30T03:15:25.243Z,71.82
2022-08-30T03:15:58.317Z,71.47
2022-08-30T03:16:31.932Z,71.18
2022-08-30T03:17:05.474Z,71.60
2022-08-30T03:17:38.290Z,72.00
2022-08-30T03:18:11.785Z,71.97
2022-08-30T03:18:44.288Z,72.65
2022-08-30T03:19:16.958Z,71.90
2022-08-30T03:19:50.467Z,71.70
2022-08-30T03:20:23.904Z,71.03
2022-08-30T03:20:56.748Z,70.97
2022-08-30T03:21:30.305Z,71.50
2022-08-30T03:22:03.142Z,71.57
2022-08-30T03:22:36.006Z,71.97
2022-08-30T03:23:09.606Z,73.07
2022-08-30T03:23:43.062Z,71.15
2022-08-30T03:24:15.554Z,71.53
2022-08-30T03:24:50.346Z,71.30
2022-08-30T03:25:23.043Z,70.57
2022-08-30T03:25:55.566Z,71.75
2022-08-30T03:26:28.025Z,71.65
2022-08-30T03:27:01.599Z,71.35
2022-08-30T03:27:34.110Z,72.47
2022-08-30T03:28:06.936Z,72.00
2022-08-30T03:28:40.747Z,70.88
2022-08-30T03:29:13.531Z,71.67
2022-08-30T03:29:46.120Z,70.72
2022-08-30T03:30:21.032Z,70.25
2022-08-30T03:30:54.522Z,70.93
2022-08-30T03:31:27.029Z,71.47
2022-08-30T03:32:00.624Z,71.22
2022-08-30T03:32:33.253Z,71.47
2022-08-30T03:33:05.943Z,71.47
2022-08-30T03:33:41.976Z,71.63
2022-08-30T03:34:14.660Z,72.00
2022-08-30T03:34:50.247Z,71.15
2022-08-30T03:35:23.811Z,71.10
2022-08-30T03:35:56.363Z,71.32
2022-08-30T03:36:29.869Z,71.60
2022-08-30T03:37:02.447Z,71.00
2022-08-30T03:37:35.306Z,71.60
2022-08-30T03:38:08.806Z,71.35
2022-08-30T03:38:41.300Z,71.70
2022-08-30T03:39:14.020Z,71.90
2022-08-30T03:39:49.062Z,71.57
2022-08-30T03:40:22.759Z,71.88
2022-08-30T03:40:56.318Z,71.78
2022-08-30T03:41:30.433Z,72.35
2022-08-30T03:42:04.664Z,71.53
2022-08-30T03:42:38.022Z,71.38
2022-08-30T03:43:14.458Z,71.38
2022-08-30T03:43:47.544Z,72.45
2022-08-30T03:44:20.832Z,71.25
2022-08-30T03:44:55.537Z,71.07
2022-08-30T03:45:28.054Z,70.75
2022-08-30T03:46:01.094Z,71.45
2022-08-30T03:46:37.425Z,71.20
2022-08-30T03:47:10.243Z,71.55
2022-08-30T03:47:43.229Z,71.60
2022-08-30T03:48:17.862Z,71.38
2022-08-30T03:48:52.145Z,71.90
2022-08-30T03:49:24.766Z,70.97
2022-08-30T03:49:58.662Z,72.72
2022-08-30T03:50:32.612Z,71.40
2022-08-30T03:51:06.323Z,71.15
2022-08-30T03:51:38.856Z,71.47
2022-08-30T03:52:11.390Z,71.53
2022-08-30T03:52:45.959Z,73.22
2022-08-30T03:53:18.659Z,70.88
2022-08-30T03:53:51.233Z,71.50
2022-08-30T03:54:24.895Z,71.70
2022-08-30T03:55:00.770Z,71.85
2022-08-30T03:55:33.432Z,71.68
2022-08-30T03:56:07.226Z,70.50
2022-08-30T03:56:39.788Z,70.80
2022-08-30T03:57:13.399Z,70.80
2022-08-30T03:57:53.877Z,72.03
2022-08-30T03:58:26.501Z,71.82
2022-08-30T03:58:59.007Z,71.28
2022-08-30T03:59:32.451Z,70.75
2022-08-30T04:00:06.626Z,70.47
2022-08-30T04:00:44.002Z,70.72
2022-08-30T04:01:17.815Z,70.97
2022-08-30T04:01:50.383Z,71.40
2022-08-30T04:02:23.477Z,70.68
2022-08-30T04:02:57.000Z,71.53
2022-08-30T04:03:29.704Z,71.20
2022-08-30T04:04:02.878Z,72.38
2022-08-30T04:04:37.188Z,71.78
2022-08-30T04:05:10.756Z,71.22
2022-08-30T04:05:43.250Z,71.10
2022-08-30T04:06:16.911Z,71.70
2022-08-30T04:06:49.987Z,71.75
2022-08-30T04:07:22.470Z,71.38
2022-08-30T04:07:56.048Z,71.05
2022-08-30T04:08:28.812Z,71.78
2022-08-30T04:09:01.588Z,72.13
2022-08-30T04:09:35.049Z,72.75
2022-08-30T04:10:10.417Z,72.05
2022-08-30T04:10:42.896Z,70.57
2022-08-30T04:11:16.555Z,71.70
2022-08-30T04:11:49.275Z,72.13
2022-08-30T04:12:22.609Z,71.22
2022-08-30T04:12:56.800Z,71.43
2022-08-30T04:13:30.372Z,71.97
2022-08-30T04:14:05.040Z,70.05
2022-08-30T04:14:37.575Z,71.43
2022-08-30T04:15:11.883Z,71.28
2022-08-30T04:15:45.375Z,70.80
2022-08-30T04:16:18.250Z,71.03
2022-08-30T04:16:50.910Z,71.43
2022-08-30T04:17:24.428Z,70.97
2022-08-30T04:17:57.264Z,71.35
2022-08-30T04:18:30.013Z,70.80
2022-08-30T04:19:04.238Z,71.60
2022-08-30T04:19:36.800Z,71.80
2022-08-30T04:20:10.435Z,70.95
2022-08-30T04:20:44.439Z,71.20
2022-08-30T04:21:17.044Z,70.80
2022-08-30T04:21:49.671Z,70.68
2022-08-30T04:22:23.177Z,71.45
2022-08-30T04:22:55.645Z,70.35
2022-08-30T04:23:28.559Z,70.80
2022-08-30T04:24:02.017Z,71.55
2022-08-30T04:24:35.028Z,71.03
2022-08-30T04:25:15.668Z,71.97
2022-08-30T04:25:49.623Z,70.80
2022-08-30T04:26:22.222Z,70.47
2022-08-30T04:26:54.828Z,70.38
2022-08-30T04:27:28.284Z,71.00
2022-08-30T04:28:00.902Z,70.57
2022-08-30T04:28:34.006Z,72.60
2022-08-30T04:29:07.774Z,71.22
2022-08-30T04:29:40.262Z,71.20
2022-08-30T04:30:15.115Z,70.97
2022-08-30T04:30:48.786Z,70.45
2022-08-30T04:31:22.039Z,71.13
2022-08-30T04:31:54.669Z,70.95
2022-08-30T04:32:28.567Z,70.57
2022-08-30T04:33:01.299Z,70.57
2022-08-30T04:33:35.385Z,72.32
2022-08-30T04:34:12.279Z,71.55
2022-08-30T04:34:44.762Z,72.18
2022-08-30T04:35:17.548Z,71.65
2022-08-30T04:35:51.625Z,71.80
2022-08-30T04:36:24.756Z,71.00
2022-08-30T04:36:57.278Z,71.30
2022-08-30T04:37:32.328Z,71.00
2022-08-30T04:38:04.824Z,71.25
2022-08-30T04:38:38.193Z,71.45
2022-08-30T04:39:11.826Z,73.13
2022-08-30T04:39:44.370Z,71.18
2022-08-30T04:40:18.446Z,71.53
2022-08-30T04:40:52.140Z,70.68
2022-08-30T04:41:24.642Z,71.90
2022-08-30T04:41:57.533Z,71.68
2022-08-30T04:42:34.049Z,71.38
2022-08-30T04:43:06.582Z,71.70
2022-08-30T04:43:40.038Z,71.40
2022-08-30T04:44:14.231Z,71.03
2022-08-30T04:44:51.741Z,71.40
2022-08-30T04:45:24.379Z,71.50
2022-08-30T04:45:58.152Z,71.43
2022-08-30T04:46:30.998Z,72.40
2022-08-30T04:47:03.681Z,71.78
2022-08-30T04:47:39.175Z,70.53
2022-08-30T04:48:11.624Z,70.85
2022-08-30T04:48:45.103Z,71.05
2022-08-30T04:49:17.617Z,72.93
2022-08-30T04:49:51.147Z,72.53
2022-08-30T04:50:23.701Z,72.55
2022-08-30T04:50:56.169Z,72.40
2022-08-30T04:51:29.682Z,72.70
2022-08-30T04:52:02.559Z,73.83
2022-08-30T04:52:36.164Z,75.13
2022-08-30T04:53:09.148Z,77.15
2022-08-30T04:53:42.060Z,75.90
2022-08-30T04:54:15.683Z,78.03
2022-08-30T04:54:48.151Z,76.95
2022-08-30T04:55:26.862Z,76.63
2022-08-30T04:55:59.604Z,77.18
2022-08-30T04:56:32.475Z,77.13
2022-08-30T04:57:07.408Z,77.85
2022-08-30T04:57:40.954Z,79.03
2022-08-30T04:58:13.450Z,78.72
2022-08-30T04:58:48.268Z,77.13
2022-08-30T04:59:22.193Z,78.45
2022-08-30T04:59:55.325Z,78.03
2022-08-30T05:00:28.943Z,77.70
2022-08-30T05:01:01.556Z,77.03
2022-08-30T05:01:36.744Z,78.18
2022-08-30T05:02:20.089Z,77.22
2022-08-30T05:02:52.571Z,78.57
2022-08-30T05:03:25.259Z,79.35
2022-08-30T05:03:59.592Z,78.47
2022-08-30T05:04:32.295Z,78.35
2022-08-30T05:05:24.342Z,77.20
2022-08-30T05:05:57.875Z,78.88
2022-08-30T05:06:31.233Z,78.90
2022-08-30T05:07:03.831Z,80.35
2022-08-30T05:07:37.635Z,82.35
2022-08-30T05:08:11.865Z,83.28
2022-08-30T05:08:45.905Z,84.60
2022-08-30T05:09:19.133Z,85.93
2022-08-30T05:09:51.697Z,87.05
2022-08-30T05:10:27.519Z,92.75
2022-08-30T05:11:03.395Z,90.57
2022-08-30T05:11:38.695Z,94.88
2022-08-30T05:12:11.189Z,89.07
2022-08-30T05:12:46.125Z,88.97
2022-08-30T05:13:21.325Z,89.30
2022-08-30T05:14:07.694Z,91.45
2022-08-30T05:14:41.128Z,89.18
2022-08-30T05:15:13.895Z,90.07
2022-08-30T05:15:47.958Z,88.68
2022-08-30T05:16:20.632Z,88.60
2022-08-30T05:16:53.203Z,87.20
2022-08-30T05:17:26.847Z,88.30
2022-08-30T05:17:59.644Z,95.35
2022-08-30T05:18:32.195Z,84.45
2022-08-30T05:19:07.875Z,81.47
2022-08-30T05:19:40.362Z,81.25
2022-08-30T05:20:13.366Z,81.03
2022-08-30T05:20:46.919Z,80.38
2022-08-30T05:21:21.151Z,85.05
2022-08-30T05:21:53.663Z,80.63
2022-08-30T05:22:27.161Z,80.53
2022-08-30T05:22:59.621Z,79.20
2022-08-30T05:23:32.393Z,78.05
2022-08-30T05:24:06.268Z,80.10
2022-08-30T05:24:38.749Z,79.82
2022-08-30T05:25:11.212Z,79.03
2022-08-30T05:25:49.555Z,78.47
2022-08-30T05:26:25.115Z,77.65
2022-08-30T05:26:57.938Z,78.40
2022-08-30T05:27:31.457Z,77.75
2022-08-30T05:28:04.898Z,77.30
2022-08-30T05:28:37.855Z,77.65
2022-08-30T05:29:11.443Z,78.82
2022-08-30T05:29:43.957Z,79.35
2022-08-30T05:30:17.368Z,78.40
2022-08-30T05:30:50.833Z,77.15
2022-08-30T05:31:26.643Z,76.78
2022-08-30T05:32:00.271Z,76.65
2022-08-30T05:32:32.812Z,76.93
2022-08-30T05:33:05.897Z,76.90
2022-08-30T05:33:39.676Z,76.00
2022-08-30T05:34:12.243Z,76.13
2022-08-30T05:34:45.788Z,78.05
2022-08-30T05:35:23.536Z,75.18
2022-08-30T05:35:59.009Z,74.75
2022-08-30T05:36:35.589Z,75.85
2022-08-30T05:37:08.555Z,74.95
2022-08-30T05:37:42.623Z,74.15
2022-08-30T05:38:15.850Z,74.30
2022-08-30T05:38:48.607Z,76.15
2022-08-30T05:39:22.480Z,73.13
2022-08-30T05:39:56.586Z,74.35
2022-08-30T05:40:29.390Z,73.95
2022-08-30T05:41:08.385Z,73.18
2022-08-30T05:41:43.550Z,74.93
2022-08-30T05:42:17.372Z,71.97
2022-08-30T05:42:49.949Z,72.55
2022-08-30T05:43:22.429Z,73.57
2022-08-30T05:44:01.871Z,74.85
2022-08-30T05:44:34.916Z,72.65
2022-08-30T05:45:08.805Z,74.03
2022-08-30T05:45:42.321Z,73.57
2022-08-30T05:46:19.403Z,75.18
2022-08-30T05:46:54.805Z,73.65
2022-08-30T05:47:31.277Z,72.20
2022-08-30T05:48:04.655Z,73.70
2022-08-30T05:48:38.975Z,72.28
2022-08-30T05:49:11.671Z,73.25
2022-08-30T05:49:44.178Z,72.47
2022-08-30T05:50:17.671Z,72.70
2022-08-30T05:50:50.137Z,72.78
2022-08-30T05:51:25.871Z,72.07
2022-08-30T05:51:58.424Z,72.05
2022-08-30T05:52:30.907Z,72.35
2022-08-30T05:53:04.371Z,74.22
2022-08-30T05:53:37.519Z,72.70
2022-08-30T05:54:10.591Z,71.70
2022-08-30T05:54:44.108Z,72.28
2022-08-30T05:55:18.900Z,72.47
2022-08-30T05:55:54.272Z,72.28
2022-08-30T05:56:32.677Z,73.00
2022-08-30T05:57:05.569Z,74.38
2022-08-30T05:57:41.525Z,73.07
2022-08-30T05:58:14.033Z,73.80
2022-08-30T05:58:46.916Z,74.28
2022-08-30T05:59:20.359Z,73.93
2022-08-30T05:59:52.943Z,75.38
2022-08-30T06:00:26.571Z,75.43
2022-08-30T06:01:00.427Z,76.60
2022-08-30T06:01:34.924Z,76.63
2022-08-30T06:02:13.270Z,77.60
2022-08-30T06:02:47.043Z,79.07
2022-08-30T06:03:19.629Z,77.65
2022-08-30T06:03:52.847Z,78.20
2022-08-30T06:04:26.898Z,76.68
2022-08-30T06:04:59.361Z,75.65
2022-08-30T06:05:32.810Z,76.75
2022-08-30T06:06:09.421Z,75.88
2022-08-30T06:06:43.901Z,77.30
2022-08-30T06:07:18.015Z,75.63
2022-08-30T06:07:54.659Z,74.55
2022-08-30T06:08:27.743Z,76.38
2022-08-30T06:09:00.569Z,77.40
2022-08-30T06:09:34.695Z,76.68
2022-08-30T06:10:07.555Z,75.68
2022-08-30T06:10:40.051Z,75.40
2022-08-30T06:11:14.311Z,75.90
2022-08-30T06:11:48.398Z,76.20
2022-08-30T06:12:24.006Z,75.63
2022-08-30T06:12:57.621Z,74.60
2022-08-30T06:13:35.916Z,75.93
2022-08-30T06:14:09.052Z,75.68
2022-08-30T06:14:42.515Z,78.32
2022-08-30T06:15:15.149Z,76.35
2022-08-30T06:15:49.559Z,75.63
2022-08-30T06:16:23.920Z,74.15
2022-08-30T06:16:58.473Z,74.10
2022-08-30T06:17:30.973Z,74.70
2022-08-30T06:18:08.047Z,73.47
2022-08-30T06:18:41.962Z,73.60
2022-08-30T06:19:15.869Z,74.20
2022-08-30T06:19:48.408Z,72.47
2022-08-30T06:20:21.836Z,73.75
2022-08-30T06:20:54.321Z,72.32
2022-08-30T06:21:29.518Z,73.82
2022-08-30T06:22:03.054Z,73.43
2022-08-30T06:22:35.903Z,72.00
2022-08-30T06:23:08.591Z,72.18
2022-08-30T06:23:44.658Z,72.80
2022-08-30T06:24:17.931Z,73.45
2022-08-30T06:24:57.524Z,72.15
2022-08-30T06:25:42.010Z,72.95
2022-08-30T06:26:16.091Z,72.15
2022-08-30T06:26:51.237Z,71.93
2022-08-30T06:27:23.845Z,72.63
2022-08-30T06:27:58.894Z,71.95
2022-08-30T06:28:33.111Z,72.55
2022-08-30T06:29:06.128Z,74.00
2022-08-30T06:29:41.829Z,72.22
2022-08-30T06:30:15.723Z,72.65
2022-08-30T06:30:51.527Z,72.50
2022-08-30T06:31:26.041Z,73.10
2022-08-30T06:32:00.141Z,71.88
2022-08-30T06:32:32.715Z,72.18
2022-08-30T06:33:05.279Z,72.22
2022-08-30T06:33:39.090Z,72.25
2022-08-30T06:34:11.650Z,73.30
2022-08-30T06:34:45.117Z,73.82
2022-08-30T06:35:20.976Z,73.03
2022-08-30T06:36:06.029Z,72.60
2022-08-30T06:36:39.340Z,73.35
2022-08-30T06:37:12.763Z,72.50
2022-08-30T06:38:02.437Z,73.18
2022-08-30T06:38:36.213Z,73.18
2022-08-30T06:39:09.437Z,72.85
2022-08-30T06:39:42.149Z,73.30
2022-08-30T06:40:17.660Z,72.80
2022-08-30T06:40:59.147Z,72.40
2022-08-30T06:41:33.221Z,72.93
2022-08-30T06:42:08.260Z,71.90
2022-08-30T06:42:41.590Z,71.75
2022-08-30T06:43:14.113Z,72.40
2022-08-30T06:43:50.094Z,72.95
2022-08-30T06:44:22.681Z,73.38
2022-08-30T06:44:57.369Z,71.78
2022-08-30T06:45:31.089Z,72.97
2022-08-30T06:46:04.379Z,72.80
2022-08-30T06:46:39.864Z,71.68
2022-08-30T06:47:12.449Z,72.28
2022-08-30T06:47:46.042Z,71.18
2022-08-30T06:48:18.692Z,71.18
2022-08-30T06:48:51.487Z,72.10
2022-08-30T06:49:25.058Z,71.47
2022-08-30T06:49:59.497Z,70.93
2022-08-30T06:50:32.152Z,72.43
2022-08-30T06:51:07.667Z,71.82
2022-08-30T06:51:40.278Z,72.32
2022-08-30T06:52:15.654Z,72.18
2022-08-30T06:52:48.249Z,71.30
2022-08-30T06:53:21.069Z,72.30
2022-08-30T06:53:54.900Z,71.88
2022-08-30T06:54:27.479Z,71.22
2022-08-30T06:55:00.067Z,71.63
2022-08-30T06:55:34.191Z,71.75
2022-08-30T06:56:08.934Z,72.22
2022-08-30T06:56:57.562Z,71.80
2022-08-30T06:57:32.862Z,72.07
2022-08-30T06:58:06.645Z,71.80
2022-08-30T06:58:40.951Z,74.68
2022-08-30T06:59:13.698Z,72.80
2022-08-30T06:59:47.330Z,72.50
2022-08-30T07:00:20.116Z,72.45
2022-08-30T07:00:52.647Z,73.50
2022-08-30T07:01:28.327Z,72.50
2022-08-30T07:02:00.866Z,72.35
2022-08-30T07:02:37.400Z,71.40
2022-08-30T07:03:10.022Z,71.72
2022-08-30T07:03:43.875Z,72.55
2022-08-30T07:04:16.361Z,73.18
2022-08-30T07:04:49.813Z,72.70
2022-08-30T07:05:23.724Z,72.63
2022-08-30T07:05:57.634Z,71.72
2022-08-30T07:06:31.657Z,72.00
2022-08-30T07:07:04.320Z,72.32
2022-08-30T07:07:37.851Z,72.63
2022-08-30T07:08:10.383Z,72.03
2022-08-30T07:08:43.033Z,72.28
2022-08-30T07:09:16.745Z,72.35
2022-08-30T07:09:49.270Z,71.88
2022-08-30T07:10:24.291Z,71.53
2022-08-30T07:10:58.115Z,72.85
2022-08-30T07:11:32.901Z,71.00
2022-08-30T07:12:07.258Z,71.30
2022-08-30T07:12:41.633Z,71.60
2022-08-30T07:13:15.095Z,72.03
2022-08-30T07:13:47.613Z,71.40
2022-08-30T07:14:21.415Z,70.95
2022-08-30T07:14:53.896Z,71.47
2022-08-30T07:15:27.491Z,70.30
2022-08-30T07:16:00.216Z,70.07
2022-08-30T07:16:34.263Z,71.35
2022-08-30T07:17:39.858Z,71.18
2022-08-30T07:18:31.641Z,70.18
2022-08-30T07:19:05.495Z,70.20